createdAt,value
2022-09-23T00:01:01.984Z,98713.38
2022-09-23T00:03:31.328Z,98715.94
2022-09-23T00:06:00.126Z,98704.00
2022-09-23T00:08:26.504Z,98706.56
2022-09-23T00:10:53.115Z,98708.28
2022-09-23T00:13:19.508Z,98710.84
2022-09-23T00:15:46.755Z,98715.13
2022-09-23T00:18:13.299Z,98709.16
2022-09-23T00:20:40.424Z,98708.31
2022-09-23T00:23:06.902Z,98708.31
2022-09-23T00:25:33.818Z,98717.69
2022-09-23T00:28:00.275Z,98709.19
2022-09-23T00:30:27.250Z,98707.47
2022-09-23T00:32:53.774Z,98707.50
2022-09-23T00:35:20.260Z,98702.38
2022-09-23T00:37:46.681Z,98703.22
2022-09-23T00:40:13.212Z,98705.78
2022-09-23T00:42:46.703Z,98704.06
2022-09-23T00:45:13.412Z,98706.63
2022-09-23T00:47:45.939Z,98693.84
2022-09-23T00:50:24.556Z,98695.56
2022-09-23T00:52:52.627Z,98695.56
2022-09-23T00:55:46.004Z,98692.19
2022-09-23T00:58:17.759Z,98694.75
2022-09-23T01:00:46.422Z,98687.06
2022-09-23T01:03:13.882Z,98678.56
2022-09-23T01:05:41.882Z,98687.94
2022-09-23T01:08:12.800Z,98680.28
2022-09-23T01:10:57.556Z,98683.66
2022-09-23T01:13:51.968Z,98676.84
2022-09-23T01:16:34.030Z,98681.13
2022-09-23T01:19:28.271Z,98676.84
2022-09-23T01:22:22.747Z,98677.69
2022-09-23T01:25:05.235Z,98672.59
2022-09-23T01:28:09.291Z,98675.16
2022-09-23T01:30:53.773Z,98676.00
2022-09-23T01:33:30.740Z,98671.75
2022-09-23T01:36:12.510Z,98667.53
2022-09-23T01:38:59.077Z,98665.81
2022-09-23T01:41:39.143Z,98667.50
2022-09-23T01:44:10.103Z,98668.34
2022-09-23T01:46:51.594Z,98662.41
2022-09-23T01:49:25.242Z,98656.47
2022-09-23T01:51:59.236Z,98659.00
2022-09-23T01:54:38.539Z,98656.47
2022-09-23T01:57:14.320Z,98662.41
2022-09-23T01:59:50.464Z,98659.84
2022-09-23T02:02:28.253Z,98651.34
2022-09-23T02:05:01.779Z,98647.09
2022-09-23T02:07:50.892Z,98655.59
2022-09-23T02:10:27.343Z,98653.91
2022-09-23T02:13:01.277Z,98658.16
2022-09-23T02:15:35.163Z,98656.44
2022-09-23T02:18:13.022Z,98653.03
2022-09-23T02:20:42.232Z,98650.50
2022-09-23T02:23:15.707Z,98647.09
2022-09-23T02:25:58.076Z,98638.56
2022-09-23T02:28:50.934Z,98653.03
2022-09-23T02:31:30.600Z,98647.06
2022-09-23T02:34:17.379Z,98641.13
2022-09-23T02:36:59.376Z,98644.53
2022-09-23T02:39:36.694Z,98643.69
2022-09-23T02:42:12.680Z,98646.22
2022-09-23T02:44:40.567Z,98647.06
2022-09-23T02:47:07.619Z,98648.78
2022-09-23T02:49:35.181Z,98648.78
2022-09-23T02:52:04.815Z,98641.97
2022-09-23T02:54:33.651Z,98644.53
2022-09-23T02:57:02.749Z,98653.84
2022-09-23T02:59:30.494Z,98641.97
2022-09-23T03:02:23.257Z,98641.09
2022-09-23T03:05:12.632Z,98633.44
2022-09-23T03:08:19.214Z,98641.09
2022-09-23T03:11:07.488Z,98638.53
2022-09-23T03:13:53.207Z,98633.44
2022-09-23T03:16:37.901Z,98636.81
2022-09-23T03:19:33.139Z,98636.84
2022-09-23T03:22:08.243Z,98634.28
2022-09-23T03:24:37.727Z,98636.81
2022-09-23T03:27:13.691Z,98627.47
2022-09-23T03:29:47.128Z,98628.31
2022-09-23T03:32:17.730Z,98630.03
2022-09-23T03:34:48.437Z,98625.78
2022-09-23T03:37:24.210Z,98626.63
2022-09-23T03:40:07.046Z,98618.97
2022-09-23T03:42:34.675Z,98618.97
2022-09-23T03:45:07.280Z,98616.41
2022-09-23T03:47:33.666Z,98620.63
2022-09-23T03:50:00.152Z,98617.25
2022-09-23T03:52:27.210Z,98614.69
2022-09-23T03:54:53.921Z,98619.78
2022-09-23T03:57:22.306Z,98609.59
2022-09-23T03:59:52.130Z,98612.97
2022-09-23T04:02:20.256Z,98611.31
2022-09-23T04:04:47.384Z,98608.75
2022-09-23T04:07:14.312Z,98612.97
2022-09-23T04:09:41.164Z,98607.88
2022-09-23T04:12:08.305Z,98606.19
2022-09-23T04:14:35.002Z,98606.19
2022-09-23T04:17:01.448Z,98607.03
2022-09-23T04:19:27.841Z,98607.03
2022-09-23T04:21:54.261Z,98601.09
2022-09-23T04:24:21.877Z,98596.84
2022-09-23T04:26:52.867Z,98591.72
2022-09-23T04:29:20.474Z,98591.72
2022-09-23T04:31:47.947Z,98586.63
2022-09-23T04:34:15.991Z,98589.19
2022-09-23T04:36:42.638Z,98591.72
2022-09-23T04:39:09.028Z,98595.13
2022-09-23T04:41:36.571Z,98587.47
2022-09-23T04:44:03.928Z,98590.00
2022-09-23T04:46:31.167Z,98589.19
2022-09-23T04:48:57.789Z,98593.44
2022-09-23T04:51:26.160Z,98594.28
2022-09-23T04:53:53.868Z,98588.34
2022-09-23T04:56:26.353Z,98590.00
2022-09-23T04:58:53.377Z,98592.56
2022-09-23T05:01:26.797Z,98591.72
2022-09-23T05:03:56.284Z,98586.63
2022-09-23T05:06:23.333Z,98587.47
2022-09-23T05:08:54.965Z,98593.41
2022-09-23T05:11:22.143Z,98589.16
2022-09-23T05:13:50.217Z,98591.72
2022-09-23T05:16:17.564Z,98600.22
2022-09-23T05:18:45.402Z,98590.00
2022-09-23T05:21:14.114Z,98587.47
2022-09-23T05:23:41.733Z,98590.03
2022-09-23T05:26:10.661Z,98590.03
2022-09-23T05:28:39.248Z,98592.59
2022-09-23T05:31:08.744Z,98589.19
2022-09-23T05:33:36.692Z,98596.00
2022-09-23T05:36:04.249Z,98594.31
2022-09-23T05:38:31.566Z,98596.03
2022-09-23T05:40:59.340Z,98601.09
2022-09-23T05:43:26.310Z,98607.91
2022-09-23T05:46:04.834Z,98597.72
2022-09-23T05:48:35.921Z,98597.72
2022-09-23T05:51:03.169Z,98599.44
2022-09-23T05:53:30.670Z,98596.00
2022-09-23T05:55:57.805Z,98599.34
2022-09-23T05:58:24.622Z,98596.59
2022-09-23T06:00:51.843Z,98607.53
2022-09-23T06:03:20.366Z,98611.53
2022-09-23T06:05:48.421Z,98608.59
2022-09-23T06:08:15.096Z,98604.91
2022-09-23T06:10:44.250Z,98606.97
2022-09-23T06:13:11.380Z,98611.53
2022-09-23T06:15:39.190Z,98611.78
2022-09-23T06:18:05.921Z,98609.47
2022-09-23T06:20:34.151Z,98608.72
2022-09-23T06:23:11.210Z,98606.16
2022-09-23T06:25:40.986Z,98600.56
2022-09-23T06:28:12.114Z,98594.03
2022-09-23T06:30:42.745Z,98596.88
2022-09-23T06:33:10.045Z,98599.69
2022-09-23T06:35:36.462Z,98604.50
2022-09-23T06:38:07.499Z,98605.59
2022-09-23T06:40:34.016Z,98611.25
2022-09-23T06:43:01.824Z,98611.88
2022-09-23T06:45:29.016Z,98609.94
2022-09-23T06:47:56.957Z,98612.88
2022-09-23T06:50:27.507Z,98607.16
2022-09-23T06:52:58.342Z,98611.59
2022-09-23T06:55:27.200Z,98602.09
2022-09-23T06:57:55.065Z,98615.34
2022-09-23T07:00:21.721Z,98603.47
2022-09-23T07:02:48.797Z,98604.25
2022-09-23T07:05:18.489Z,98592.91
2022-09-23T07:07:45.087Z,98597.78
2022-09-23T07:10:12.286Z,98592.06
2022-09-23T07:12:38.720Z,98593.69
2022-09-23T07:15:05.560Z,98595.34
2022-09-23T07:17:31.951Z,98597.31
2022-09-23T07:19:58.514Z,98590.75
2022-09-23T07:22:26.491Z,98590.88
2022-09-23T07:24:55.988Z,98591.97
2022-09-23T07:27:27.183Z,98591.00
2022-09-23T07:29:54.110Z,98598.22
2022-09-23T07:32:22.520Z,98593.28
2022-09-23T07:34:49.686Z,98599.34
2022-09-23T07:37:17.621Z,98593.16
2022-09-23T07:39:44.803Z,98601.09
2022-09-23T07:42:12.391Z,98596.47
2022-09-23T07:44:41.261Z,98600.94
2022-09-23T07:47:07.702Z,98589.81
2022-09-23T07:49:35.483Z,98587.56
2022-09-23T07:52:02.128Z,98597.91
2022-09-23T07:54:29.943Z,98592.50
2022-09-23T07:56:56.280Z,98598.56
2022-09-23T07:59:23.009Z,98592.22
2022-09-23T08:01:52.614Z,98593.75
2022-09-23T08:04:23.770Z,98593.53
2022-09-23T08:06:53.934Z,98594.88
2022-09-23T08:09:25.025Z,98585.03
2022-09-23T08:11:52.456Z,98587.59
2022-09-23T08:14:19.187Z,98587.50
2022-09-23T08:16:47.072Z,98579.22
2022-09-23T08:19:13.733Z,98581.34
2022-09-23T08:21:41.821Z,98581.19
2022-09-23T08:24:12.596Z,98583.41
2022-09-23T08:26:39.119Z,98579.53
2022-09-23T08:29:06.131Z,98579.69
2022-09-23T08:31:32.634Z,98577.19
2022-09-23T08:33:59.773Z,98571.56
2022-09-23T08:36:27.154Z,98572.25
2022-09-23T08:38:54.262Z,98577.81
2022-09-23T08:41:34.078Z,98575.00
2022-09-23T08:44:11.992Z,98575.78
2022-09-23T08:46:44.865Z,98572.16
2022-09-23T08:49:17.124Z,98565.72
2022-09-23T08:51:48.421Z,98569.09
2022-09-23T08:54:17.754Z,98575.97
2022-09-23T08:56:51.388Z,98568.31
2022-09-23T08:59:28.774Z,98574.31
2022-09-23T09:02:01.091Z,98562.91
2022-09-23T09:04:41.093Z,98562.91
2022-09-23T09:07:32.194Z,98552.00
2022-09-23T09:10:06.376Z,98553.69
2022-09-23T09:12:44.326Z,98557.00
2022-09-23T09:15:14.196Z,98549.38
2022-09-23T09:17:48.328Z,98539.38
2022-09-23T09:20:21.353Z,98539.56
2022-09-23T09:22:57.589Z,98539.28
2022-09-23T09:25:37.922Z,98540.78
2022-09-23T09:28:30.889Z,98531.22
2022-09-23T09:31:01.056Z,98539.84
2022-09-23T09:33:37.094Z,98538.22
2022-09-23T09:36:15.021Z,98539.63
2022-09-23T09:38:41.394Z,98534.13
2022-09-23T09:41:16.940Z,98531.44
2022-09-23T09:43:49.091Z,98529.25
2022-09-23T09:46:52.792Z,98531.13
2022-09-23T09:49:38.113Z,98513.75
2022-09-23T09:52:23.422Z,98511.59
2022-09-23T09:54:51.062Z,98514.25
2022-09-23T09:57:35.193Z,98513.19
2022-09-23T10:00:26.368Z,98515.53
2022-09-23T10:02:55.534Z,98508.13
2022-09-23T10:05:31.822Z,98509.56
2022-09-23T10:08:20.824Z,98502.66
2022-09-23T10:11:15.246Z,98492.88
2022-09-23T10:13:45.727Z,98491.41
2022-09-23T10:16:15.643Z,98496.91
2022-09-23T10:18:55.708Z,98492.75
2022-09-23T10:21:27.722Z,98492.94
2022-09-23T10:23:58.171Z,98483.00
2022-09-23T10:26:32.417Z,98477.75
2022-09-23T10:29:02.655Z,98488.00
2022-09-23T10:31:32.266Z,98486.00
2022-09-23T10:34:01.663Z,98482.16
2022-09-23T10:36:30.930Z,98479.09
2022-09-23T10:39:20.122Z,98483.22
2022-09-23T10:42:25.575Z,98481.34
2022-09-23T10:45:38.568Z,98481.09
2022-09-23T10:48:28.842Z,98468.63
2022-09-23T10:50:56.168Z,98467.25
2022-09-23T10:54:22.952Z,98454.50
2022-09-23T10:57:00.830Z,98460.38
2022-09-23T10:59:47.573Z,98447.88
2022-09-23T11:02:57.711Z,98454.59
2022-09-23T11:05:59.022Z,98443.69
2022-09-23T11:08:37.432Z,98440.19
2022-09-23T11:11:15.643Z,98445.28
2022-09-23T11:14:05.379Z,98443.31
2022-09-23T11:16:53.485Z,98439.38
2022-09-23T11:19:55.925Z,98434.56
2022-09-23T11:22:45.267Z,98435.72
2022-09-23T11:25:34.977Z,98431.50
2022-09-23T11:28:17.381Z,98433.56
2022-09-23T11:31:10.162Z,98420.03
2022-09-23T11:33:41.478Z,98423.50
2022-09-23T11:36:20.588Z,98415.00
2022-09-23T11:38:50.783Z,98410.78
2022-09-23T11:41:27.875Z,98404.00
2022-09-23T11:44:11.522Z,98401.88
2022-09-23T11:46:43.654Z,98402.13
2022-09-23T11:49:57.094Z,98402.88
2022-09-23T11:52:44.986Z,98393.88
2022-09-23T11:55:31.438Z,98391.56
2022-09-23T11:58:07.863Z,98385.75
2022-09-23T12:00:49.138Z,98384.66
2022-09-23T12:03:44.407Z,98391.94
2022-09-23T12:06:27.687Z,98389.88
2022-09-23T12:09:01.049Z,98386.72
2022-09-23T12:11:50.576Z,98388.63
2022-09-23T12:14:31.019Z,98379.28
2022-09-23T12:17:12.606Z,98370.72
2022-09-23T12:19:48.615Z,98369.47
2022-09-23T12:22:49.531Z,98371.69
2022-09-23T12:25:34.776Z,98367.50
2022-09-23T12:28:06.803Z,98362.22
2022-09-23T12:30:37.145Z,98360.25
2022-09-23T12:33:16.406Z,98360.63
2022-09-23T12:35:45.787Z,98350.72
2022-09-23T12:38:14.856Z,98351.31
2022-09-23T12:40:44.486Z,98352.81
2022-09-23T12:43:34.811Z,98340.13
2022-09-23T12:46:25.697Z,98346.28
2022-09-23T12:48:58.268Z,98343.38
2022-09-23T12:51:26.586Z,98341.34
2022-09-23T12:53:58.452Z,98332.50
2022-09-23T12:56:28.147Z,98330.16
2022-09-23T12:58:58.209Z,98329.31
2022-09-23T13:01:26.777Z,98323.34
2022-09-23T13:04:14.073Z,98325.13
2022-09-23T13:06:40.354Z,98331.81
2022-09-23T13:09:21.362Z,98328.56
2022-09-23T13:11:48.396Z,98324.84
2022-09-23T13:14:25.156Z,98313.84
2022-09-23T13:16:54.186Z,98312.34
2022-09-23T13:19:26.967Z,98309.47
2022-09-23T13:21:53.320Z,98311.16
2022-09-23T13:24:22.734Z,98307.13
2022-09-23T13:26:54.037Z,98302.75
2022-09-23T13:29:27.028Z,98294.19
2022-09-23T13:32:00.141Z,98292.59
2022-09-23T13:34:31.360Z,98285.88
2022-09-23T13:36:58.799Z,98285.28
2022-09-23T13:39:27.605Z,98278.38
2022-09-23T13:42:03.192Z,98274.31
2022-09-23T13:44:30.241Z,98275.44
2022-09-23T13:46:59.865Z,98269.84
2022-09-23T13:49:30.973Z,98263.81
2022-09-23T13:51:57.645Z,98267.09
2022-09-23T13:54:28.867Z,98266.69
2022-09-23T13:56:58.797Z,98266.69
2022-09-23T13:59:36.084Z,98264.81
2022-09-23T14:02:14.272Z,98259.84
2022-09-23T14:04:40.757Z,98262.25
2022-09-23T14:07:09.128Z,98267.47
2022-09-23T14:09:37.264Z,98263.47
2022-09-23T14:12:05.678Z,98266.09
2022-09-23T14:14:36.983Z,98254.63
2022-09-23T14:17:06.336Z,98257.13
2022-09-23T14:19:34.603Z,98254.78
2022-09-23T14:22:01.069Z,98254.88
2022-09-23T14:24:36.250Z,98256.00
2022-09-23T14:27:18.509Z,98245.47
2022-09-23T14:29:47.741Z,98242.00
2022-09-23T14:32:21.078Z,98245.03
2022-09-23T14:35:05.607Z,98241.69
2022-09-23T14:37:56.797Z,98240.81
2022-09-23T14:40:27.590Z,98242.41
2022-09-23T14:43:16.239Z,98239.13
2022-09-23T14:45:47.305Z,98230.84
2022-09-23T14:48:18.187Z,98237.94
2022-09-23T14:50:51.929Z,98238.25
2022-09-23T14:53:24.281Z,98236.19
2022-09-23T14:55:53.204Z,98235.63
2022-09-23T14:58:25.584Z,98233.31
2022-09-23T15:01:00.301Z,98228.63
2022-09-23T15:03:28.564Z,98225.28
2022-09-23T15:06:09.036Z,98221.22
2022-09-23T15:08:35.966Z,98216.91
2022-09-23T15:11:08.088Z,98218.97
2022-09-23T15:13:39.706Z,98212.34
2022-09-23T15:16:06.920Z,98204.41
2022-09-23T15:18:35.823Z,98202.97
2022-09-23T15:21:23.269Z,98199.09
2022-09-23T15:23:54.934Z,98210.81
2022-09-23T15:26:47.208Z,98215.19
2022-09-23T15:29:13.575Z,98206.03
2022-09-23T15:31:40.014Z,98204.03
2022-09-23T15:34:06.527Z,98205.94
2022-09-23T15:36:33.176Z,98200.47
2022-09-23T15:39:06.215Z,98202.63
2022-09-23T15:41:35.486Z,98195.81
2022-09-23T15:44:16.994Z,98192.94
2022-09-23T15:46:49.927Z,98197.50
2022-09-23T15:49:28.779Z,98189.84
2022-09-23T15:51:58.981Z,98190.09
2022-09-23T15:54:25.488Z,98197.03
2022-09-23T15:56:51.863Z,98192.38
2022-09-23T15:59:19.124Z,98196.84
2022-09-23T16:01:45.903Z,98194.88
2022-09-23T16:04:15.874Z,98193.13
2022-09-23T16:06:44.471Z,98197.00
2022-09-23T16:09:13.391Z,98192.91
2022-09-23T16:11:44.660Z,98187.28
2022-09-23T16:14:16.486Z,98191.47
2022-09-23T16:16:45.276Z,98186.78
2022-09-23T16:19:12.374Z,98193.75
2022-09-23T16:21:40.941Z,98192.75
2022-09-23T16:24:15.738Z,98188.78
2022-09-23T16:26:43.148Z,98186.34
2022-09-23T16:29:11.339Z,98185.78
2022-09-23T16:31:38.560Z,98187.94
2022-09-23T16:34:05.400Z,98183.72
2022-09-23T16:36:33.931Z,98173.66
2022-09-23T16:39:04.113Z,98175.31
2022-09-23T16:41:33.937Z,98173.19
2022-09-23T16:44:02.194Z,98169.63
2022-09-23T16:46:29.491Z,98175.53
2022-09-23T16:48:57.575Z,98177.00
2022-09-23T16:51:50.152Z,98177.16
2022-09-23T16:54:17.904Z,98174.47
2022-09-23T16:56:45.274Z,98175.31
2022-09-23T16:59:13.696Z,98180.66
2022-09-23T17:01:58.664Z,98177.75
2022-09-23T17:04:25.173Z,98173.91
2022-09-23T17:06:52.787Z,98173.88
2022-09-23T17:09:21.954Z,98172.75
2022-09-23T17:11:58.659Z,98181.00
2022-09-23T17:14:25.280Z,98171.91
2022-09-23T17:16:51.673Z,98167.41
2022-09-23T17:19:18.047Z,98168.59
2022-09-23T17:21:44.725Z,98175.25
2022-09-23T17:24:11.441Z,98173.88
2022-09-23T17:26:38.232Z,98176.94
2022-09-23T17:29:09.591Z,98173.63
2022-09-23T17:31:36.155Z,98173.06
2022-09-23T17:34:02.626Z,98175.22
2022-09-23T17:36:29.111Z,98172.38
2022-09-23T17:38:56.076Z,98172.63
2022-09-23T17:41:22.534Z,98168.69
2022-09-23T17:43:55.361Z,98168.06
2022-09-23T17:46:21.848Z,98176.09
2022-09-23T17:48:48.652Z,98176.41
2022-09-23T17:51:17.392Z,98168.28
2022-09-23T17:53:45.440Z,98168.72
2022-09-23T17:56:14.247Z,98172.25
2022-09-23T17:58:40.789Z,98172.50
2022-09-23T18:01:26.157Z,98171.25
2022-09-23T18:04:00.818Z,98179.94
2022-09-23T18:06:31.313Z,98176.78
2022-09-23T18:09:01.450Z,98177.16
2022-09-23T18:11:29.939Z,98180.91
2022-09-23T18:14:08.131Z,98180.25
2022-09-23T18:16:36.642Z,98181.22
2022-09-23T18:19:04.654Z,98173.66
2022-09-23T18:21:33.621Z,98175.66
2022-09-23T18:24:21.674Z,98179.72
2022-09-23T18:26:47.584Z,98171.34
2022-09-23T18:29:14.064Z,98166.50
2022-09-23T18:31:41.163Z,98161.84
2022-09-23T18:34:11.562Z,98160.38
2022-09-23T18:36:38.329Z,98159.56
2022-09-23T18:39:05.352Z,98158.75
2022-09-23T18:41:31.791Z,98151.28
2022-09-23T18:44:01.535Z,98156.53
2022-09-23T18:46:29.940Z,98159.91
2022-09-23T18:49:15.646Z,98164.41
2022-09-23T18:51:56.368Z,98168.84
2022-09-23T18:54:29.792Z,98165.56
2022-09-23T18:56:56.738Z,98163.25
2022-09-23T18:59:25.119Z,98166.00
2022-09-23T19:01:54.927Z,98155.91
2022-09-23T19:04:23.720Z,98156.69
2022-09-23T19:06:50.259Z,98165.41
2022-09-23T19:09:18.805Z,98165.47
2022-09-23T19:11:45.663Z,98165.63
2022-09-23T19:14:14.417Z,98163.03
2022-09-23T19:16:41.595Z,98158.19
2022-09-23T19:19:11.307Z,98167.00
2022-09-23T19:21:37.829Z,98157.69
2022-09-23T19:24:06.982Z,98161.31
2022-09-23T19:26:37.411Z,98157.94
2022-09-23T19:29:05.792Z,98160.66
2022-09-23T19:31:34.647Z,98165.97
2022-09-23T19:34:10.591Z,98166.97
2022-09-23T19:36:39.647Z,98161.13
2022-09-23T19:39:17.338Z,98164.69
2022-09-23T19:41:44.528Z,98164.78
2022-09-23T19:44:11.463Z,98162.38
2022-09-23T19:46:40.689Z,98163.25
2022-09-23T19:49:07.740Z,98165.84
2022-09-23T19:51:34.811Z,98163.34
2022-09-23T19:54:03.293Z,98168.59
2022-09-23T19:56:30.263Z,98153.34
2022-09-23T19:58:57.608Z,98167.13
2022-09-23T20:01:26.220Z,98164.63
2022-09-23T20:03:53.375Z,98162.03
2022-09-23T20:06:20.586Z,98151.81
2022-09-23T20:08:47.890Z,98154.53
2022-09-23T20:11:17.302Z,98158.88
2022-09-23T20:13:49.661Z,98159.78
2022-09-23T20:16:19.661Z,98153.78
2022-09-23T20:18:53.548Z,98159.03
2022-09-23T20:21:20.244Z,98161.56
2022-09-23T20:23:46.835Z,98164.25
2022-09-23T20:26:36.977Z,98160.84
2022-09-23T20:29:05.755Z,98155.72
2022-09-23T20:31:34.585Z,98161.81
2022-09-23T20:34:05.713Z,98150.59
2022-09-23T20:36:33.146Z,98141.19
2022-09-23T20:39:01.672Z,98144.59
2022-09-23T20:41:29.819Z,98135.06
2022-09-23T20:44:00.655Z,98128.16
2022-09-23T20:46:28.647Z,98141.03
2022-09-23T20:48:56.979Z,98136.84
2022-09-23T20:51:24.847Z,98131.59
2022-09-23T20:53:53.034Z,98138.50
2022-09-23T20:56:24.781Z,98140.16
2022-09-23T20:58:52.661Z,98141.94
2022-09-23T21:01:19.846Z,98147.16
2022-09-23T21:03:48.807Z,98141.22
2022-09-23T21:06:17.221Z,98142.88
2022-09-23T21:08:44.615Z,98143.84
2022-09-23T21:11:13.568Z,98147.34
2022-09-23T21:13:39.996Z,98146.50
2022-09-23T21:16:10.436Z,98149.00
2022-09-23T21:18:38.262Z,98146.47
2022-09-23T21:21:06.320Z,98147.41
2022-09-23T21:23:40.686Z,98149.19
2022-09-23T21:26:19.273Z,98145.72
2022-09-23T21:28:48.599Z,98138.97
2022-09-23T21:31:26.599Z,98137.31
2022-09-23T21:33:54.220Z,98137.41
2022-09-23T21:36:21.642Z,98134.78
2022-09-23T21:38:48.059Z,98139.94
2022-09-23T21:41:14.715Z,98141.72
2022-09-23T21:43:41.459Z,98135.75
2022-09-23T21:46:11.093Z,98130.66
2022-09-23T21:48:42.389Z,98136.63
2022-09-23T21:51:14.967Z,98134.06
2022-09-23T21:53:43.141Z,98139.25
2022-09-23T21:56:19.579Z,98131.50
2022-09-23T21:58:47.031Z,98135.81
2022-09-23T22:01:25.809Z,98128.91
2022-09-23T22:04:05.473Z,98128.97
2022-09-23T22:06:32.327Z,98126.47
2022-09-23T22:09:01.511Z,98123.91
2022-09-23T22:11:49.133Z,98119.72
2022-09-23T22:14:17.628Z,98122.25
2022-09-23T22:16:44.042Z,98118.03
2022-09-23T22:19:12.544Z,98110.31
2022-09-23T22:21:40.027Z,98106.03
2022-09-23T22:24:08.597Z,98107.53
2022-09-23T22:26:38.715Z,98108.50
2022-09-23T22:29:26.492Z,98099.19
2022-09-23T22:32:11.729Z,98096.63
2022-09-23T22:34:49.579Z,98099.13
2022-09-23T22:37:19.447Z,98099.22
2022-09-23T22:39:46.280Z,98101.81
2022-09-23T22:42:16.058Z,98103.53
2022-09-23T22:44:42.720Z,98107.00
2022-09-23T22:47:09.660Z,98105.34
2022-09-23T22:49:38.564Z,98108.78
2022-09-23T22:52:09.144Z,98119.06
2022-09-23T22:54:36.385Z,98113.19
2022-09-23T22:57:07.338Z,98108.81
2022-09-23T22:59:34.472Z,98109.84
2022-09-23T23:02:02.298Z,98109.88
2022-09-23T23:04:29.800Z,98107.34
2022-09-23T23:06:58.505Z,98100.50
2022-09-23T23:09:25.131Z,98109.09
2022-09-23T23:11:51.532Z,98105.56
2022-09-23T23:14:18.723Z,98112.50
2022-09-23T23:16:46.174Z,98110.66
2022-09-23T23:19:16.734Z,98108.09
2022-09-23T23:21:46.128Z,98104.59
2022-09-23T23:24:30.811Z,98108.00
2022-09-23T23:26:57.274Z,98103.81
2022-09-23T23:29:23.883Z,98099.53
2022-09-23T23:31:50.421Z,98100.38
2022-09-23T23:34:19.234Z,98107.22
2022-09-23T23:36:47.101Z,98104.66
2022-09-23T23:39:14.308Z,98100.34
2022-09-23T23:41:41.589Z,98101.19
2022-09-23T23:44:08.657Z,98091.88
2022-09-23T23:46:37.276Z,98092.72
2022-09-23T23:49:04.534Z,98098.81
2022-09-23T23:51:31.032Z,98093.66
2022-09-23T23:53:59.281Z,98087.75
2022-09-23T23:56:26.716Z,98083.47
2022-09-23T23:59:02.372Z,98086.94
